createdAt,value
2018-03-02T00:00:31.957Z,22.13
2018-03-02T00:02:59.476Z,20.07
2018-03-02T00:05:27.038Z,21.90
2018-03-02T00:07:54.599Z,20.70
2018-03-02T00:10:22.888Z,24.47
2018-03-02T00:12:50.407Z,22.17
2018-03-02T00:15:17.930Z,20.17
2018-03-02T00:17:46.214Z,21.30
2018-03-02T00:20:14.495Z,21.83
2018-03-02T00:22:42.803Z,21.37
2018-03-02T00:25:10.339Z,21.83
2018-03-02T00:27:37.871Z,22.73
2018-03-02T00:30:05.380Z,22.10
2018-03-02T00:32:32.898Z,21.67
2018-03-02T00:35:01.208Z,20.47
2018-03-02T00:37:28.727Z,19.27
2018-03-02T00:39:57.010Z,22.73
2018-03-02T00:42:25.292Z,21.70
2018-03-02T00:44:53.574Z,21.00
2018-03-02T00:47:21.857Z,24.30
2018-03-02T00:49:49.387Z,19.40
2018-03-02T00:52:17.671Z,20.43
2018-03-02T00:54:45.949Z,20.93
2018-03-02T00:57:13.487Z,22.43
2018-03-02T00:59:40.994Z,19.80
2018-03-02T01:02:08.491Z,20.53
2018-03-02T01:04:36.015Z,20.83
2018-03-02T01:07:03.520Z,21.27
2018-03-02T01:09:31.511Z,20.90
2018-03-02T01:11:59.796Z,19.50
2018-03-02T01:14:27.323Z,20.90
2018-03-02T01:16:54.823Z,19.03
2018-03-02T01:19:22.347Z,20.67
2018-03-02T01:21:50.635Z,19.67
2018-03-02T01:24:18.915Z,23.57
2018-03-02T01:26:47.233Z,21.57
2018-03-02T01:29:14.734Z,21.50
2018-03-02T01:31:42.238Z,22.53
2018-03-02T01:34:09.782Z,22.87
2018-03-02T01:36:37.302Z,22.30
2018-03-02T01:39:04.799Z,21.93
2018-03-02T01:41:32.332Z,21.80
2018-03-02T01:44:00.616Z,21.77
2018-03-02T01:46:28.932Z,21.00
2018-03-02T01:48:56.463Z,23.07
2018-03-02T01:51:35.871Z,21.67
2018-03-02T01:54:03.385Z,22.33
2018-03-02T01:56:30.891Z,22.87
2018-03-02T01:58:59.157Z,22.87
2018-03-02T02:01:26.699Z,21.77
2018-03-02T02:03:54.196Z,21.73
2018-03-02T02:06:22.478Z,21.10
2018-03-02T02:08:50.023Z,23.80
2018-03-02T02:11:18.322Z,22.90
2018-03-02T02:13:45.827Z,21.70
2018-03-02T02:16:14.328Z,22.23
2018-03-02T02:18:41.827Z,22.23
2018-03-02T02:21:09.351Z,22.33
2018-03-02T02:23:37.673Z,23.90
2018-03-02T02:26:05.181Z,23.77
2018-03-02T02:28:32.704Z,22.67
2018-03-02T02:31:00.223Z,22.87
2018-03-02T02:33:27.764Z,24.07
2018-03-02T02:35:55.295Z,23.73
2018-03-02T02:38:22.812Z,23.53
2018-03-02T02:40:50.310Z,20.73
2018-03-02T02:43:18.407Z,22.40
2018-03-02T02:45:46.693Z,24.43
2018-03-02T02:48:14.974Z,22.60
2018-03-02T02:50:42.505Z,21.37
2018-03-02T02:53:10.027Z,21.13
2018-03-02T02:55:37.550Z,23.07
2018-03-02T02:58:05.072Z,22.00
2018-03-02T03:00:32.576Z,24.20
2018-03-02T03:03:00.096Z,24.93
2018-03-02T03:05:28.424Z,23.00
2018-03-02T03:07:55.979Z,24.53
2018-03-02T03:10:23.503Z,22.87
2018-03-02T03:12:52.522Z,24.97
2018-03-02T03:15:20.022Z,21.17
2018-03-02T03:17:47.554Z,21.83
2018-03-02T03:20:15.114Z,27.30
2018-03-02T03:22:42.658Z,24.77
2018-03-02T03:25:10.202Z,24.73
2018-03-02T03:27:37.738Z,23.17
2018-03-02T03:30:06.021Z,23.43
2018-03-02T03:32:34.307Z,22.80
2018-03-02T03:35:01.846Z,21.83
2018-03-02T03:37:29.368Z,22.67
2018-03-02T03:39:56.891Z,25.03
2018-03-02T03:42:24.410Z,23.00
2018-03-02T03:44:51.918Z,24.87
2018-03-02T03:47:19.420Z,22.60
2018-03-02T03:49:46.934Z,23.80
2018-03-02T03:52:14.446Z,24.33
2018-03-02T03:54:41.943Z,24.33
2018-03-02T03:57:09.468Z,22.97
2018-03-02T03:59:37.748Z,23.17
2018-03-02T04:02:06.845Z,23.63
2018-03-02T04:04:35.156Z,23.87
2018-03-02T04:07:02.699Z,24.87
2018-03-02T04:09:30.261Z,24.63
2018-03-02T04:11:57.797Z,23.90
2018-03-02T04:14:26.078Z,25.63
2018-03-02T04:16:54.375Z,29.37
2018-03-02T04:19:21.885Z,23.73
2018-03-02T04:21:49.408Z,25.97
2018-03-02T04:24:16.919Z,24.43
2018-03-02T04:26:45.198Z,24.73
2018-03-02T04:29:13.477Z,24.87
2018-03-02T04:31:41.797Z,24.30
2018-03-02T04:34:09.334Z,25.07
2018-03-02T04:36:36.866Z,22.30
2018-03-02T04:39:05.143Z,23.03
2018-03-02T04:41:33.423Z,19.87
2018-03-02T04:44:00.961Z,24.17
2018-03-02T04:46:29.257Z,21.07
2018-03-02T04:48:57.525Z,24.33
2018-03-02T04:51:25.011Z,23.80
2018-03-02T04:53:52.551Z,23.77
2018-03-02T04:56:20.830Z,22.67
2018-03-02T04:58:49.095Z,21.47
2018-03-02T05:01:17.379Z,24.43
2018-03-02T05:03:45.660Z,25.93
2018-03-02T05:06:13.943Z,24.10
2018-03-02T05:08:41.442Z,25.20
2018-03-02T05:11:09.983Z,23.77
2018-03-02T05:13:37.760Z,24.83
2018-03-02T05:16:05.287Z,25.17
2018-03-02T05:18:33.951Z,25.60
2018-03-02T05:21:01.458Z,25.33
2018-03-02T05:23:28.990Z,24.87
2018-03-02T05:25:58.315Z,26.33
2018-03-02T05:28:25.816Z,25.77
2018-03-02T05:30:53.347Z,24.97
2018-03-02T05:33:20.887Z,26.40
2018-03-02T05:35:49.175Z,24.90
2018-03-02T05:38:16.683Z,25.30
2018-03-02T05:40:44.187Z,27.37
2018-03-02T05:43:11.704Z,24.80
2018-03-02T05:45:39.231Z,26.50
2018-03-02T05:48:06.740Z,27.03
2018-03-02T05:50:35.008Z,25.17
2018-03-02T05:53:02.533Z,27.30
2018-03-02T05:55:30.112Z,23.97
2018-03-02T05:57:57.635Z,26.20
2018-03-02T06:00:25.196Z,26.93
2018-03-02T06:02:52.739Z,26.63
2018-03-02T06:05:20.231Z,27.40
2018-03-02T06:07:47.747Z,27.60
2018-03-02T06:10:16.026Z,25.10
2018-03-02T06:12:44.325Z,24.60
2018-03-02T06:15:11.847Z,22.97
2018-03-02T06:17:39.379Z,25.80
2018-03-02T06:20:07.262Z,24.00
2018-03-02T06:22:34.774Z,25.73
2018-03-02T06:25:02.287Z,27.20
2018-03-02T06:27:30.716Z,25.80
2018-03-02T06:29:58.234Z,27.47
2018-03-02T06:32:25.749Z,26.77
2018-03-02T06:34:53.359Z,26.77
2018-03-02T06:37:20.838Z,26.17
2018-03-02T06:39:49.091Z,26.93
2018-03-02T06:42:16.634Z,25.97
2018-03-02T06:44:44.143Z,27.03
2018-03-02T06:47:12.510Z,27.20
2018-03-02T06:49:40.036Z,22.20
2018-03-02T06:52:07.540Z,25.23
2018-03-02T06:54:35.056Z,26.13
2018-03-02T06:57:02.590Z,28.47
2018-03-02T06:59:30.113Z,26.50
2018-03-02T07:01:57.638Z,24.87
2018-03-02T07:04:25.166Z,25.33
2018-03-02T07:06:52.680Z,25.27
2018-03-02T07:09:20.340Z,26.47
2018-03-02T07:11:47.880Z,24.03
2018-03-02T07:14:15.406Z,25.20
2018-03-02T07:16:42.939Z,25.57
2018-03-02T07:19:10.463Z,18.10
2018-03-02T07:21:38.730Z,25.63
2018-03-02T07:24:06.242Z,26.77
2018-03-02T07:26:34.767Z,24.53
2018-03-02T07:29:03.796Z,27.30
2018-03-02T07:31:31.343Z,26.33
2018-03-02T07:33:59.656Z,26.13
2018-03-02T07:36:27.177Z,22.97
2018-03-02T07:38:55.464Z,21.67
2018-03-02T07:41:23.731Z,25.67
2018-03-02T07:43:51.274Z,24.50
2018-03-02T07:46:18.791Z,24.20
2018-03-02T07:48:46.316Z,25.50
2018-03-02T07:51:14.606Z,23.90
2018-03-02T07:53:42.109Z,25.53
2018-03-02T07:56:09.634Z,25.10
2018-03-02T07:58:37.175Z,25.47
2018-03-02T08:01:05.448Z,24.53
2018-03-02T08:03:33.734Z,23.57
2018-03-02T08:06:01.243Z,23.10
2018-03-02T08:08:28.750Z,23.33
2018-03-02T08:10:57.217Z,25.47
2018-03-02T08:13:25.482Z,25.93
2018-03-02T08:15:53.000Z,24.63
2018-03-02T08:18:20.511Z,24.93
2018-03-02T08:20:48.779Z,26.97
2018-03-02T08:23:17.067Z,26.87
2018-03-02T08:25:45.360Z,25.30
2018-03-02T08:28:12.863Z,24.40
2018-03-02T08:30:40.394Z,23.53
2018-03-02T08:33:08.655Z,26.90
2018-03-02T08:35:36.183Z,27.40
2018-03-02T08:38:04.454Z,24.80
2018-03-02T08:40:31.975Z,25.57
2018-03-02T08:42:59.519Z,23.97
2018-03-02T08:45:27.779Z,26.33
2018-03-02T08:47:55.282Z,26.10
2018-03-02T08:50:23.542Z,27.43
2018-03-02T08:52:51.034Z,25.23
2018-03-02T08:55:18.564Z,22.70
2018-03-02T08:57:46.870Z,27.97
2018-03-02T09:00:14.355Z,24.40
2018-03-02T09:02:42.640Z,19.77
2018-03-02T09:05:10.157Z,25.30
2018-03-02T09:07:37.651Z,22.97
2018-03-02T09:10:05.928Z,20.03
2018-03-02T09:12:33.424Z,27.20
2018-03-02T09:15:00.958Z,24.37
2018-03-02T09:17:28.470Z,25.73
2018-03-02T09:19:55.979Z,28.10
2018-03-02T09:22:23.504Z,26.43
2018-03-02T09:24:51.796Z,24.83
2018-03-02T09:27:19.331Z,25.97
2018-03-02T09:29:46.820Z,25.70
2018-03-02T09:32:14.344Z,23.30
2018-03-02T09:34:42.673Z,26.23
2018-03-02T09:37:10.181Z,26.63
2018-03-02T09:39:37.756Z,23.50
2018-03-02T09:42:06.020Z,24.93
2018-03-02T09:44:34.111Z,25.67
2018-03-02T09:47:02.423Z,23.60
2018-03-02T09:49:29.952Z,20.80
2018-03-02T09:51:57.476Z,24.27
2018-03-02T09:54:25.028Z,25.97
2018-03-02T09:56:52.539Z,24.23
2018-03-02T09:59:21.833Z,23.10
2018-03-02T10:01:49.354Z,25.80
2018-03-02T10:04:16.839Z,26.07
2018-03-02T10:06:44.342Z,25.60
2018-03-02T10:09:11.907Z,24.40
2018-03-02T10:11:40.169Z,26.90
2018-03-02T10:14:07.802Z,24.53
2018-03-02T10:16:35.296Z,24.87
2018-03-02T10:19:02.839Z,21.97
2018-03-02T10:21:30.339Z,24.67
2018-03-02T10:23:57.827Z,23.50
2018-03-02T10:26:25.338Z,25.23
2018-03-02T10:28:52.839Z,19.87
2018-03-02T10:31:21.103Z,23.97
2018-03-02T10:33:48.636Z,23.87
2018-03-02T10:36:16.143Z,22.00
2018-03-02T10:38:44.434Z,23.60
2018-03-02T10:41:11.938Z,20.13
2018-03-02T10:43:39.457Z,26.43
2018-03-02T10:46:07.702Z,22.53
2018-03-02T10:48:35.199Z,24.23
2018-03-02T10:51:02.688Z,23.33
2018-03-02T10:53:30.187Z,23.50
2018-03-02T10:55:58.457Z,25.33
2018-03-02T10:58:25.944Z,24.20
2018-03-02T11:00:53.438Z,24.57
2018-03-02T11:03:22.767Z,19.37
2018-03-02T11:05:50.250Z,24.10
2018-03-02T11:08:17.751Z,24.70
2018-03-02T11:10:45.299Z,23.70
2018-03-02T11:13:12.786Z,24.90
2018-03-02T11:15:40.274Z,25.23
2018-03-02T11:18:07.803Z,24.47
2018-03-02T11:20:35.571Z,24.40
2018-03-02T11:23:03.068Z,23.27
2018-03-02T11:25:31.384Z,24.57
2018-03-02T11:28:00.851Z,23.23
2018-03-02T11:30:28.703Z,24.47
2018-03-02T11:32:57.095Z,25.50
2018-03-02T11:35:24.891Z,26.17
2018-03-02T11:37:52.508Z,21.50
2018-03-02T11:40:20.826Z,24.33
2018-03-02T11:42:49.494Z,23.63
2018-03-02T11:45:17.024Z,23.80
2018-03-02T11:47:44.614Z,25.90
2018-03-02T11:50:12.273Z,25.77
2018-03-02T11:52:41.802Z,27.43
2018-03-02T11:55:10.463Z,27.87
2018-03-02T11:57:37.974Z,26.67
2018-03-02T12:00:05.472Z,25.20
2018-03-02T12:02:33.009Z,23.50
2018-03-02T12:05:01.418Z,23.90
2018-03-02T12:07:29.312Z,22.43
2018-03-02T12:09:59.040Z,23.13
2018-03-02T12:12:28.082Z,21.87
2018-03-02T12:14:58.156Z,22.70
2018-03-02T12:17:25.772Z,22.17
2018-03-02T12:19:53.464Z,23.13
2018-03-02T12:22:21.055Z,23.33
2018-03-02T12:24:48.555Z,24.37
2018-03-02T12:27:16.196Z,20.53
2018-03-02T12:29:44.588Z,23.60
2018-03-02T12:32:12.159Z,24.30
2018-03-02T12:34:39.663Z,24.20
2018-03-02T12:37:07.177Z,23.77
2018-03-02T12:39:34.836Z,22.80
2018-03-02T12:42:03.155Z,21.50
2018-03-02T12:44:30.684Z,24.63
2018-03-02T12:46:59.076Z,24.10
2018-03-02T12:49:26.603Z,23.63
2018-03-02T12:51:54.866Z,24.03
2018-03-02T12:54:24.203Z,23.33
2018-03-02T12:56:51.655Z,22.67
2018-03-02T12:59:19.150Z,25.67
2018-03-02T13:01:46.675Z,23.47
2018-03-02T13:04:14.187Z,23.53
2018-03-02T13:06:41.681Z,23.97
2018-03-02T13:09:09.218Z,22.90
2018-03-02T13:11:37.495Z,23.57
2018-03-02T13:14:05.801Z,24.23
2018-03-02T13:16:33.299Z,23.10
2018-03-02T13:19:00.794Z,24.57
2018-03-02T13:21:29.074Z,24.60
2018-03-02T13:23:57.354Z,24.37
2018-03-02T13:26:37.426Z,25.13
2018-03-02T13:29:04.958Z,24.03
2018-03-02T13:31:33.239Z,23.70
2018-03-02T13:34:13.275Z,23.20
2018-03-02T13:36:40.795Z,24.17
2018-03-02T13:39:08.316Z,23.63
2018-03-02T13:41:47.682Z,25.47
2018-03-02T13:44:15.175Z,24.20
2018-03-02T13:46:42.676Z,23.17
2018-03-02T13:49:22.175Z,24.93
2018-03-02T13:51:49.671Z,23.37
2018-03-02T13:54:17.201Z,24.20
2018-03-02T13:56:57.327Z,25.10
2018-03-02T13:59:24.828Z,24.13
2018-03-02T14:01:52.345Z,24.17
2018-03-02T14:04:45.559Z,25.77
2018-03-02T14:07:13.076Z,23.43
2018-03-02T14:09:40.617Z,26.17
2018-03-02T14:12:08.138Z,24.53
2018-03-02T14:14:35.655Z,23.83
2018-03-02T14:17:03.167Z,25.60
2018-03-02T14:19:30.673Z,25.73
2018-03-02T14:21:58.958Z,23.77
2018-03-02T14:24:27.225Z,24.30
2018-03-02T14:26:54.739Z,23.00
2018-03-02T14:29:22.259Z,23.53
2018-03-02T14:31:51.892Z,23.83
2018-03-02T14:34:19.383Z,23.63
2018-03-02T14:36:46.903Z,24.33
2018-03-02T14:39:14.411Z,24.10
2018-03-02T14:41:41.951Z,24.97
2018-03-02T14:44:09.472Z,24.10
2018-03-02T14:46:36.972Z,24.47
2018-03-02T14:49:04.499Z,25.87
2018-03-02T14:51:32.006Z,24.80
2018-03-02T14:54:00.368Z,23.77
2018-03-02T14:56:27.899Z,24.57
2018-03-02T14:58:55.610Z,25.67
2018-03-02T15:01:23.905Z,23.67
2018-03-02T15:03:51.431Z,25.87
2018-03-02T15:06:18.940Z,26.40
2018-03-02T15:08:46.469Z,24.77
2018-03-02T15:11:14.734Z,25.23
2018-03-02T15:13:42.250Z,26.40
2018-03-02T15:16:09.738Z,25.00
2018-03-02T15:18:37.253Z,24.00
2018-03-02T15:21:04.763Z,26.00
2018-03-02T15:23:32.311Z,26.67
2018-03-02T15:25:59.842Z,24.43
2018-03-02T15:28:27.341Z,27.43
2018-03-02T15:30:55.610Z,27.13
2018-03-02T15:33:23.135Z,25.97
2018-03-02T15:35:50.639Z,27.30
2018-03-02T15:38:18.928Z,26.23
2018-03-02T15:40:47.202Z,24.80
2018-03-02T15:43:15.508Z,27.40
2018-03-02T15:45:43.027Z,26.23
2018-03-02T15:48:11.310Z,25.73
2018-03-02T15:50:39.583Z,27.13
2018-03-02T15:53:08.273Z,24.53
2018-03-02T15:55:35.799Z,25.03
2018-03-02T15:58:03.329Z,26.03
2018-03-02T16:00:30.844Z,26.27
2018-03-02T16:02:59.115Z,25.50
2018-03-02T16:05:27.409Z,23.73
2018-03-02T16:07:54.990Z,26.93
2018-03-02T16:10:22.503Z,25.83
2018-03-02T16:12:51.792Z,25.27
2018-03-02T16:15:19.376Z,25.13
2018-03-02T16:17:47.652Z,27.57
2018-03-02T16:20:15.935Z,25.97
2018-03-02T16:22:43.435Z,26.17
2018-03-02T16:25:10.961Z,25.80
2018-03-02T16:27:38.476Z,25.60
2018-03-02T16:30:05.988Z,27.63
2018-03-02T16:32:33.551Z,27.93
2018-03-02T16:35:01.806Z,27.50
2018-03-02T16:37:30.009Z,29.67
2018-03-02T16:39:57.552Z,27.27
2018-03-02T16:42:25.077Z,28.50
2018-03-02T16:44:53.367Z,27.63
2018-03-02T16:47:21.640Z,26.20
2018-03-02T16:49:49.936Z,28.50
2018-03-02T16:52:17.466Z,28.27
2018-03-02T16:54:45.753Z,30.73
2018-03-02T16:57:14.040Z,28.47
2018-03-02T16:59:41.587Z,27.90
2018-03-02T17:02:09.146Z,29.10
2018-03-02T17:04:36.668Z,26.00
2018-03-02T17:07:04.176Z,30.57
2018-03-02T17:09:32.372Z,27.13
2018-03-02T17:11:59.938Z,28.77
2018-03-02T17:14:27.478Z,30.73
2018-03-02T17:16:55.066Z,27.77
2018-03-02T17:19:22.597Z,29.37
2018-03-02T17:21:50.119Z,30.20
2018-03-02T17:24:18.385Z,31.17
2018-03-02T17:26:46.690Z,32.97
2018-03-02T17:29:14.236Z,30.73
2018-03-02T17:31:42.531Z,30.97
2018-03-02T17:34:10.057Z,31.33
2018-03-02T17:36:38.336Z,30.87
2018-03-02T17:39:06.659Z,28.73
2018-03-02T17:41:34.187Z,29.93
2018-03-02T17:44:01.727Z,31.10
2018-03-02T17:46:30.046Z,28.07
2018-03-02T17:48:57.550Z,29.67
2018-03-02T17:51:25.073Z,30.83
2018-03-02T17:53:52.572Z,29.33
2018-03-02T17:56:20.122Z,29.57
2018-03-02T17:58:47.613Z,29.13
2018-03-02T18:01:15.147Z,27.70
2018-03-02T18:03:42.682Z,29.90
2018-03-02T18:06:10.972Z,29.07
2018-03-02T18:08:38.458Z,32.57
2018-03-02T18:11:06.803Z,30.10
2018-03-02T18:13:34.290Z,27.17
2018-03-02T18:16:02.574Z,30.40
2018-03-02T18:18:30.860Z,29.00
2018-03-02T18:20:58.359Z,28.33
2018-03-02T18:23:25.884Z,27.00
2018-03-02T18:25:53.401Z,28.63
2018-03-02T18:28:21.683Z,26.97
2018-03-02T18:30:50.013Z,37.42
2018-03-02T18:33:17.551Z,29.60
2018-03-02T18:35:45.055Z,29.57
2018-03-02T18:38:12.580Z,29.90
2018-03-02T18:40:40.097Z,27.67
2018-03-02T18:43:08.381Z,25.20
2018-03-02T18:45:36.663Z,28.90
2018-03-02T18:48:04.192Z,28.13
2018-03-02T18:50:31.688Z,27.00
2018-03-02T18:52:59.203Z,26.30
2018-03-02T18:55:26.710Z,25.50
2018-03-02T18:57:54.243Z,25.13
2018-03-02T19:00:22.515Z,25.97
2018-03-02T19:02:50.056Z,24.77
2018-03-02T19:05:17.543Z,27.83
2018-03-02T19:07:45.064Z,26.63
2018-03-02T19:10:12.560Z,25.73
2018-03-02T19:12:40.087Z,27.63
2018-03-02T19:15:07.588Z,27.73
2018-03-02T19:17:35.108Z,26.47
2018-03-02T19:20:02.689Z,31.20
2018-03-02T19:22:30.209Z,25.73
2018-03-02T19:24:57.751Z,26.17
2018-03-02T19:27:25.383Z,25.67
2018-03-02T19:29:52.956Z,25.37
2018-03-02T19:32:20.556Z,25.50
2018-03-02T19:34:48.961Z,26.93
2018-03-02T19:37:16.556Z,27.20
2018-03-02T19:39:44.184Z,27.37
2018-03-02T19:42:11.827Z,27.10
2018-03-02T19:44:39.470Z,27.17
2018-03-02T19:47:07.092Z,29.00
2018-03-02T19:49:34.750Z,26.27
2018-03-02T19:52:02.341Z,28.00
2018-03-02T19:54:29.947Z,28.03
2018-03-02T19:56:57.525Z,27.80
2018-03-02T19:59:25.157Z,27.17
2018-03-02T20:01:53.541Z,26.83
2018-03-02T20:04:21.120Z,29.17
2018-03-02T20:06:48.658Z,26.53
2018-03-02T20:09:16.972Z,27.77
2018-03-02T20:11:44.556Z,26.13
2018-03-02T20:14:12.946Z,25.57
2018-03-02T20:16:40.576Z,26.43
2018-03-02T20:19:08.164Z,26.50
2018-03-02T20:21:35.719Z,27.43
2018-03-02T20:24:03.285Z,28.30
2018-03-02T20:26:31.616Z,28.80
2018-03-02T20:28:59.160Z,28.37
2018-03-02T20:31:26.695Z,29.67
2018-03-02T20:33:54.960Z,28.53
2018-03-02T20:36:22.472Z,27.70
2018-03-02T20:38:49.976Z,28.30
2018-03-02T20:41:17.491Z,27.13
2018-03-02T20:43:45.006Z,28.00
2018-03-02T20:46:13.287Z,30.73
2018-03-02T20:48:42.452Z,29.17
2018-03-02T20:51:10.009Z,27.43
2018-03-02T20:53:37.531Z,28.00
2018-03-02T20:56:05.057Z,27.33
2018-03-02T20:58:33.355Z,28.07
2018-03-02T21:01:00.883Z,27.10
2018-03-02T21:03:29.180Z,28.43
2018-03-02T21:05:56.721Z,28.00
2018-03-02T21:08:25.033Z,27.70
2018-03-02T21:10:52.548Z,28.13
2018-03-02T21:13:20.092Z,27.93
2018-03-02T21:15:47.616Z,30.00
2018-03-02T21:18:15.131Z,28.53
2018-03-02T21:20:43.414Z,30.07
2018-03-02T21:23:10.939Z,30.03
2018-03-02T21:25:38.461Z,28.73
2018-03-02T21:28:06.042Z,29.17
2018-03-02T21:30:33.587Z,30.43
2018-03-02T21:33:01.127Z,28.57
2018-03-02T21:35:28.632Z,29.03
2018-03-02T21:37:56.153Z,27.77
2018-03-02T21:40:23.739Z,29.27
2018-03-02T21:42:51.978Z,30.20
2018-03-02T21:45:19.472Z,27.47
2018-03-02T21:47:46.980Z,28.67
2018-03-02T21:50:14.500Z,29.20
2018-03-02T21:52:42.063Z,28.77
2018-03-02T21:55:09.576Z,28.07
2018-03-02T21:57:37.103Z,27.93
2018-03-02T22:00:05.379Z,29.47
2018-03-02T22:02:32.875Z,27.63
2018-03-02T22:05:00.676Z,28.30
2018-03-02T22:07:28.190Z,29.20
2018-03-02T22:09:55.700Z,29.13
2018-03-02T22:12:23.212Z,29.50
2018-03-02T22:14:50.761Z,27.37
2018-03-02T22:17:18.297Z,29.63
2018-03-02T22:19:46.625Z,29.20
2018-03-02T22:22:14.128Z,29.00
2018-03-02T22:24:42.417Z,29.67
2018-03-02T22:27:09.971Z,30.77
2018-03-02T22:29:37.528Z,30.77
2018-03-02T22:32:05.152Z,29.83
2018-03-02T22:34:32.676Z,30.77
2018-03-02T22:37:00.191Z,29.40
2018-03-02T22:39:27.702Z,30.77
2018-03-02T22:41:55.224Z,34.70
2018-03-02T22:44:23.518Z,33.83
2018-03-02T22:46:51.029Z,30.93
2018-03-02T22:49:18.567Z,30.97
2018-03-02T22:51:46.068Z,33.33
2018-03-02T22:54:14.375Z,35.50
2018-03-02T22:56:41.882Z,28.83
2018-03-02T22:59:09.416Z,25.90
2018-03-02T23:01:36.917Z,31.83
2018-03-02T23:04:05.215Z,30.40
2018-03-02T23:06:32.741Z,30.03
2018-03-02T23:09:00.244Z,33.53
2018-03-02T23:11:27.759Z,32.80
2018-03-02T23:13:55.287Z,29.87
2018-03-02T23:16:22.808Z,30.60
2018-03-02T23:18:50.310Z,32.17
2018-03-02T23:21:17.869Z,29.63
2018-03-02T23:23:45.389Z,29.30
2018-03-02T23:26:12.994Z,28.97
2018-03-02T23:28:41.297Z,32.03
2018-03-02T23:31:09.597Z,29.20
2018-03-02T23:33:37.121Z,30.50
2018-03-02T23:36:04.623Z,30.07
2018-03-02T23:38:32.144Z,30.63
2018-03-02T23:41:00.427Z,28.63
2018-03-02T23:43:28.683Z,31.23
2018-03-02T23:45:56.452Z,28.37
2018-03-02T23:48:23.939Z,28.43
2018-03-02T23:50:51.446Z,27.13
2018-03-02T23:53:18.973Z,28.17
2018-03-02T23:55:46.498Z,27.37
2018-03-02T23:58:14.761Z,27.33
